Time;durP1;ratioP1;P1;durP2;ratioP2;P2;SDS_P1;SDS_P2;PMS_P1;PMS_P2;Temp;Humidity;BMP_temperature;BMP_pressure;BME280_temperature;BME280_humidity;BME280_pressure;Samples;Min_cycle;Max_cycle;Signal;HPM_P1;HPM_P2
2023/04/12 00:01:19;;;;;;;3.78;0.90;;;;;;;;;;5006357;28;20029;-69
2023/04/12 00:03:49;;;;;;;1.67;0.88;;;;;;;;;;5005321;28;20038;-69
2023/04/12 00:06:16;;;;;;;2.05;1.17;;;;;;;;;;5005746;28;20036;-69
2023/04/12 00:08:41;;;;;;;4.93;1.55;;;;;;;;;;5006209;28;20034;-69
2023/04/12 00:11:07;;;;;;;2.60;1.00;;;;;;;;;;5002592;28;20056;-68
2023/04/12 00:13:32;;;;;;;3.90;0.98;;;;;;;;;;4993345;28;20113;-69
2023/04/12 00:15:58;;;;;;;3.30;1.10;;;;;;;;;;5006048;28;20026;-69
2023/04/12 00:18:23;;;;;;;2.13;1.13;;;;;;;;;;5005886;28;20030;-69
2023/04/12 00:20:50;;;;;;;5.05;1.10;;;;;;;;;;5005508;28;20034;-69
2023/04/12 00:23:16;;;;;;;1.90;1.10;;;;;;;;;;5003230;28;20061;-69
2023/04/12 00:25:41;;;;;;;2.20;0.90;;;;;;;;;;4993126;28;20034;-69
2023/04/12 00:28:06;;;;;;;2.25;0.88;;;;;;;;;;5002549;28;20121;-69
2023/04/12 00:30:32;;;;;;;2.58;1.40;;;;;;;;;;5009097;28;20101;-69
2023/04/12 00:32:58;;;;;;;2.90;1.08;;;;;;;;;;5004416;28;20052;-69
2023/04/12 00:35:23;;;;;;;1.13;1.02;;;;;;;;;;5007454;28;20123;-69
2023/04/12 00:37:49;;;;;;;1.27;0.90;;;;;;;;;;5006225;28;20057;-69
2023/04/12 00:40:15;;;;;;;2.72;0.90;;;;;;;;;;5003695;28;20120;-69
2023/04/12 00:42:40;;;;;;;3.55;1.50;;;;;;;;;;5008776;28;20521;-69
2023/04/12 00:45:07;;;;;;;1.42;0.95;;;;;;;;;;5008022;28;20588;-69
2023/04/12 00:47:35;;;;;;;2.38;1.05;;;;;;;;;;5001061;28;20030;-69
2023/04/12 00:50:02;;;;;;;2.00;0.90;;;;;;;;;;5003580;28;20063;-69
2023/04/12 00:52:33;;;;;;;4.40;1.00;;;;;;;;;;5005908;28;20026;-68
2023/04/12 00:55:00;;;;;;;1.27;0.85;;;;;;;;;;5006604;28;20065;-69
2023/04/12 00:57:26;;;;;;;1.63;1.02;;;;;;;;;;5004738;28;20030;-69
2023/04/12 00:59:52;;;;;;;4.70;1.30;;;;;;;;;;5003655;28;20061;-69
2023/04/12 01:02:17;;;;;;;3.13;1.00;;;;;;;;;;5005726;28;20034;-69
2023/04/12 01:04:42;;;;;;;2.63;0.90;;;;;;;;;;5004426;28;20080;-69
2023/04/12 01:07:28;;;;;;;2.47;0.82;;;;;;;;;;5006561;28;20029;-69
2023/04/12 01:10:17;;;;;;;3.22;1.38;;;;;;;;;;5009920;28;20037;-69
2023/04/12 01:13:03;;;;;;;1.15;0.90;;;;;;;;;;4995431;28;20054;-69
2023/04/12 01:15:32;;;;;;;2.40;0.82;;;;;;;;;;5011173;28;20081;-69
2023/04/12 01:18:07;;;;;;;2.15;1.02;;;;;;;;;;5009161;28;20524;-69
2023/04/12 01:20:43;;;;;;;3.50;1.08;;;;;;;;;;5008811;28;20448;-69
2023/04/12 01:23:28;;;;;;;3.38;1.30;;;;;;;;;;5009179;28;20041;-69
2023/04/12 01:26:06;;;;;;;1.17;0.80;;;;;;;;;;4994780;28;20492;-69
2023/04/12 01:28:33;;;;;;;2.67;1.05;;;;;;;;;;5002630;28;20454;-69
2023/04/12 01:31:03;;;;;;;1.65;0.90;;;;;;;;;;5001704;28;20026;-69
2023/04/12 01:33:30;;;;;;;2.25;0.77;;;;;;;;;;5006087;28;20053;-69
2023/04/12 01:36:00;;;;;;;2.75;0.95;;;;;;;;;;5015930;28;20030;-69
2023/04/12 01:38:27;;;;;;;2.17;1.33;;;;;;;;;;4999367;28;20140;-69
2023/04/12 01:40:53;;;;;;;3.10;0.90;;;;;;;;;;4999232;28;20034;-70
2023/04/12 01:43:18;;;;;;;2.42;1.00;;;;;;;;;;4996036;28;20029;-69
2023/04/12 01:45:43;;;;;;;0.95;0.82;;;;;;;;;;5012219;28;20022;-69
2023/04/12 01:48:10;;;;;;;2.80;1.00;;;;;;;;;;5008419;28;20034;-70
2023/04/12 01:50:57;;;;;;;2.00;0.85;;;;;;;;;;5008440;28;20112;-69
2023/04/12 01:53:36;;;;;;;4.32;1.38;;;;;;;;;;5008031;28;20037;-69
2023/04/12 01:56:07;;;;;;;2.20;1.27;;;;;;;;;;5011100;28;20087;-69
2023/04/12 01:58:33;;;;;;;2.00;0.90;;;;;;;;;;5012201;28;20553;-70
2023/04/12 02:01:00;;;;;;;1.95;0.82;;;;;;;;;;4995902;28;20624;-69
2023/04/12 02:03:29;;;;;;;1.40;0.90;;;;;;;;;;5001393;28;20038;-70
2023/04/12 02:05:56;;;;;;;0.80;0.68;;;;;;;;;;5000223;28;20030;-69
2023/04/12 02:08:22;;;;;;;2.33;1.20;;;;;;;;;;4997752;28;20181;-68
2023/04/12 02:10:47;;;;;;;1.65;0.80;;;;;;;;;;5011000;28;20164;-69
2023/04/12 02:13:12;;;;;;;2.63;1.08;;;;;;;;;;5017495;28;20021;-68
2023/04/12 02:15:39;;;;;;;1.52;0.82;;;;;;;;;;4995048;28;20018;-68
2023/04/12 02:18:04;;;;;;;1.80;1.20;;;;;;;;;;5007927;28;20181;-69
2023/04/12 02:20:30;;;;;;;1.02;0.60;;;;;;;;;;5003903;28;20037;-69
2023/04/12 02:22:55;;;;;;;1.20;0.82;;;;;;;;;;5004516;28;20058;-70
2023/04/12 02:25:21;;;;;;;1.75;0.90;;;;;;;;;;5008645;28;20083;-70
2023/04/12 02:27:47;;;;;;;6.28;1.20;;;;;;;;;;5008211;28;20029;-69
2023/04/12 02:30:14;;;;;;;1.73;0.70;;;;;;;;;;5014020;28;20045;-69
2023/04/12 02:32:45;;;;;;;4.30;1.35;;;;;;;;;;5007880;28;20515;-69
2023/04/12 02:35:12;;;;;;;2.55;1.00;;;;;;;;;;4994369;28;20044;-69
2023/04/12 02:37:38;;;;;;;3.85;1.10;;;;;;;;;;5007730;28;20080;-69
2023/04/12 02:40:09;;;;;;;2.15;0.90;;;;;;;;;;5008017;28;20185;-69
2023/04/12 02:42:34;;;;;;;1.58;1.10;;;;;;;;;;4998719;28;20045;-69
2023/04/12 02:44:59;;;;;;;1.58;1.00;;;;;;;;;;5009194;28;20044;-68
2023/04/12 02:47:27;;;;;;;1.60;1.02;;;;;;;;;;5008071;28;20044;-69
2023/04/12 02:49:53;;;;;;;1.33;0.63;;;;;;;;;;5006529;28;20037;-69
2023/04/12 02:52:18;;;;;;;3.13;1.00;;;;;;;;;;5005220;28;20160;-69
2023/04/12 02:54:44;;;;;;;2.45;0.77;;;;;;;;;;5007728;28;20467;-69
2023/04/12 02:57:10;;;;;;;2.28;0.80;;;;;;;;;;5007694;28;20045;-69
2023/04/12 02:59:36;;;;;;;3.42;1.10;;;;;;;;;;5005541;28;20038;-69
2023/04/12 03:02:01;;;;;;;2.78;1.00;;;;;;;;;;5007105;28;20045;-69
2023/04/12 03:04:29;;;;;;;0.95;0.80;;;;;;;;;;5006841;28;20457;-69
2023/04/12 03:06:55;;;;;;;1.70;0.90;;;;;;;;;;5007262;28;20038;-69
2023/04/12 03:09:21;;;;;;;1.20;0.85;;;;;;;;;;5006680;28;20030;-69
2023/04/12 03:11:46;;;;;;;1.98;0.82;;;;;;;;;;5006327;28;20053;-68
2023/04/12 03:14:11;;;;;;;1.50;0.60;;;;;;;;;;5005244;28;20050;-69
2023/04/12 03:16:37;;;;;;;1.20;0.65;;;;;;;;;;5003077;28;20076;-69
2023/04/12 03:19:03;;;;;;;1.70;0.75;;;;;;;;;;5003567;28;20491;-69
2023/04/12 03:21:28;;;;;;;1.00;0.65;;;;;;;;;;5009893;28;20026;-70
2023/04/12 03:23:54;;;;;;;0.82;0.60;;;;;;;;;;5005944;28;20077;-69
2023/04/12 03:26:19;;;;;;;1.38;0.90;;;;;;;;;;5003015;28;20248;-68
2023/04/12 03:28:46;;;;;;;0.80;0.73;;;;;;;;;;5008022;28;20037;-69
2023/04/12 03:31:11;;;;;;;0.77;0.60;;;;;;;;;;5007918;28;20029;-68
2023/04/12 03:33:37;;;;;;;0.85;0.70;;;;;;;;;;5012600;28;20443;-69
2023/04/12 03:36:04;;;;;;;2.10;0.68;;;;;;;;;;5019711;28;20203;-69
2023/04/12 03:38:29;;;;;;;0.88;0.68;;;;;;;;;;5006847;28;20113;-69
2023/04/12 03:40:54;;;;;;;2.22;1.40;;;;;;;;;;5006946;28;20034;-69
2023/04/12 03:43:21;;;;;;;1.88;0.70;;;;;;;;;;5003735;28;20049;-69
2023/04/12 03:45:46;;;;;;;2.83;1.33;;;;;;;;;;4997376;28;20042;-69
2023/04/12 03:48:12;;;;;;;1.73;0.90;;;;;;;;;;5003052;28;20036;-68
2023/04/12 03:50:43;;;;;;;2.53;0.98;;;;;;;;;;5006186;28;20045;-69
2023/04/12 03:53:09;;;;;;;2.13;1.10;;;;;;;;;;5006648;28;20112;-69
2023/04/12 03:55:36;;;;;;;1.20;0.73;;;;;;;;;;5006213;28;20091;-69
2023/04/12 03:58:02;;;;;;;0.68;0.60;;;;;;;;;;5005957;28;20109;-69
2023/04/12 04:00:28;;;;;;;2.33;0.80;;;;;;;;;;5006525;28;20083;-69
2023/04/12 04:02:53;;;;;;;1.83;1.08;;;;;;;;;;5013925;28;20037;-69
2023/04/12 04:05:18;;;;;;;1.20;0.77;;;;;;;;;;5005062;28;20034;-69
2023/04/12 04:07:44;;;;;;;2.00;1.10;;;;;;;;;;5004275;28;20030;-69
2023/04/12 04:10:10;;;;;;;2.38;1.10;;;;;;;;;;5005609;28;20025;-69
2023/04/12 04:12:35;;;;;;;3.22;0.93;;;;;;;;;;5005869;28;20112;-69
2023/04/12 04:15:00;;;;;;;1.20;0.98;;;;;;;;;;5005630;28;20037;-69
2023/04/12 04:17:26;;;;;;;1.98;0.98;;;;;;;;;;5006373;28;20129;-69
2023/04/12 04:19:51;;;;;;;2.58;1.20;;;;;;;;;;5006091;28;20073;-69
2023/04/12 04:22:20;;;;;;;2.33;1.10;;;;;;;;;;5005128;28;20022;-69
2023/04/12 04:24:47;;;;;;;2.83;0.95;;;;;;;;;;5004838;28;20025;-69
2023/04/12 04:27:14;;;;;;;1.92;1.00;;;;;;;;;;5021674;28;20040;-69
2023/04/12 04:29:44;;;;;;;3.10;1.10;;;;;;;;;;5006747;28;20030;-70
2023/04/12 04:32:09;;;;;;;3.00;1.20;;;;;;;;;;5008854;28;20033;-69
2023/04/12 04:34:35;;;;;;;5.13;1.55;;;;;;;;;;5005555;28;20030;-69
2023/04/12 04:37:01;;;;;;;5.03;1.50;;;;;;;;;;5006481;28;20026;-69
2023/04/12 04:39:26;;;;;;;4.45;1.20;;;;;;;;;;5005959;28;20121;-69
2023/04/12 04:41:53;;;;;;;4.45;1.20;;;;;;;;;;5005663;28;20061;-69
2023/04/12 04:44:19;;;;;;;3.90;1.20;;;;;;;;;;5010289;28;20034;-69
2023/04/12 04:46:44;;;;;;;4.85;1.00;;;;;;;;;;5009216;28;20030;-69
2023/04/12 04:49:10;;;;;;;2.13;1.05;;;;;;;;;;5010226;28;20018;-69
2023/04/12 04:51:35;;;;;;;5.90;1.27;;;;;;;;;;5009223;28;20014;-69
2023/04/12 04:54:01;;;;;;;3.53;1.05;;;;;;;;;;5008351;28;20037;-69
2023/04/12 04:56:26;;;;;;;5.72;1.38;;;;;;;;;;5016742;28;20416;-69
2023/04/12 04:58:52;;;;;;;3.70;1.40;;;;;;;;;;5021657;28;20102;-70
2023/04/12 05:01:17;;;;;;;5.10;1.30;;;;;;;;;;5009478;28;20496;-69
2023/04/12 05:03:48;;;;;;;8.68;1.75;;;;;;;;;;5009485;28;20044;-69
2023/04/12 05:06:13;;;;;;;6.05;1.60;;;;;;;;;;5009327;28;20034;-69
2023/04/12 05:08:39;;;;;;;8.13;1.40;;;;;;;;;;5009331;28;20045;-69
2023/04/12 05:11:05;;;;;;;5.50;1.88;;;;;;;;;;5006770;28;20045;-69
2023/04/12 05:13:30;;;;;;;3.78;1.40;;;;;;;;;;5009403;28;20449;-69
2023/04/12 05:15:55;;;;;;;8.45;1.75;;;;;;;;;;5009440;28;20493;-69
2023/04/12 05:18:21;;;;;;;9.10;1.77;;;;;;;;;;5009230;28;20133;-69
2023/04/12 05:20:47;;;;;;;5.25;1.60;;;;;;;;;;5008607;28;20034;-69
2023/04/12 05:23:16;;;;;;;7.95;1.77;;;;;;;;;;5009082;28;20049;-68
2023/04/12 05:25:46;;;;;;;8.95;1.85;;;;;;;;;;5008949;28;20032;-68
2023/04/12 05:28:13;;;;;;;7.78;1.40;;;;;;;;;;5007378;28;20030;-69
2023/04/12 05:30:39;;;;;;;4.53;1.30;;;;;;;;;;5001248;28;20053;-69
2023/04/12 05:33:05;;;;;;;7.35;1.40;;;;;;;;;;5008382;28;20068;-69
2023/04/12 05:35:30;;;;;;;10.68;2.03;;;;;;;;;;5007527;28;20506;-69
2023/04/12 05:37:55;;;;;;;4.28;1.50;;;;;;;;;;5009058;28;20038;-69
2023/04/12 05:40:21;;;;;;;4.03;1.38;;;;;;;;;;5008389;28;20025;-70
2023/04/12 05:42:46;;;;;;;10.95;1.70;;;;;;;;;;5008725;28;20029;-70
2023/04/12 05:45:11;;;;;;;5.07;1.48;;;;;;;;;;5001529;28;20580;-70
2023/04/12 05:47:37;;;;;;;4.40;1.20;;;;;;;;;;4999717;28;20034;-70
2023/04/12 05:50:02;;;;;;;6.25;2.00;;;;;;;;;;5008277;28;20044;-69
2023/04/12 05:52:28;;;;;;;4.47;1.15;;;;;;;;;;5007154;28;20034;-69
2023/04/12 05:54:53;;;;;;;7.18;1.35;;;;;;;;;;5009276;28;20532;-69
2023/04/12 05:57:18;;;;;;;5.90;1.48;;;;;;;;;;5013963;28;20033;-69
2023/04/12 05:59:43;;;;;;;9.00;1.80;;;;;;;;;;5006668;28;20057;-69
2023/04/12 06:02:09;;;;;;;5.40;1.35;;;;;;;;;;5003067;28;20097;-69
2023/04/12 06:04:37;;;;;;;8.88;1.50;;;;;;;;;;4990472;28;20157;-69
2023/04/12 06:07:04;;;;;;;4.68;1.40;;;;;;;;;;4990925;28;20030;-68
2023/04/12 06:09:29;;;;;;;10.45;1.75;;;;;;;;;;5004956;28;20037;-70
2023/04/12 06:11:56;;;;;;;7.82;1.52;;;;;;;;;;5003434;28;20038;-69
2023/04/12 06:14:21;;;;;;;6.38;1.20;;;;;;;;;;5006379;28;20033;-69
2023/04/12 06:16:46;;;;;;;6.28;1.40;;;;;;;;;;5008192;28;20030;-69
2023/04/12 06:19:12;;;;;;;4.00;1.40;;;;;;;;;;5011404;28;20052;-69
2023/04/12 06:21:37;;;;;;;7.95;1.90;;;;;;;;;;5019637;28;20022;-69
2023/04/12 06:24:02;;;;;;;3.47;1.13;;;;;;;;;;5014009;28;20037;-69
2023/04/12 06:26:29;;;;;;;6.57;1.25;;;;;;;;;;5008446;28;20030;-68
2023/04/12 06:28:54;;;;;;;8.30;1.80;;;;;;;;;;5007794;28;20080;-69
2023/04/12 06:31:20;;;;;;;5.78;2.15;;;;;;;;;;5007387;28;20026;-69
2023/04/12 06:33:46;;;;;;;4.47;1.30;;;;;;;;;;5008214;28;20056;-69
2023/04/12 06:36:13;;;;;;;8.80;1.63;;;;;;;;;;5006448;28;20045;-69
2023/04/12 06:38:38;;;;;;;9.63;1.23;;;;;;;;;;5002581;28;20424;-69
2023/04/12 06:41:05;;;;;;;8.70;1.42;;;;;;;;;;5014192;28;20042;-69
2023/04/12 06:43:30;;;;;;;6.82;1.13;;;;;;;;;;5007396;28;20041;-69
2023/04/12 06:45:55;;;;;;;4.03;1.45;;;;;;;;;;4996434;28;20080;-69
2023/04/12 06:48:21;;;;;;;5.82;1.30;;;;;;;;;;5005148;28;20102;-69
2023/04/12 06:50:46;;;;;;;5.82;1.38;;;;;;;;;;5006159;28;20044;-69
2023/04/12 06:53:14;;;;;;;10.32;3.13;;;;;;;;;;5005109;28;20433;-69
2023/04/12 06:55:40;;;;;;;5.63;1.50;;;;;;;;;;5006878;28;20037;-69
2023/04/12 06:58:05;;;;;;;5.18;1.45;;;;;;;;;;5006591;28;20033;-69
2023/04/12 07:00:31;;;;;;;3.80;1.63;;;;;;;;;;5004060;28;20445;-69
2023/04/12 07:02:56;;;;;;;4.78;1.08;;;;;;;;;;5003181;28;20038;-69
2023/04/12 07:05:22;;;;;;;5.22;1.45;;;;;;;;;;5005459;28;20056;-69
2023/04/12 07:07:47;;;;;;;6.45;1.70;;;;;;;;;;5008317;28;20034;-69
2023/04/12 07:10:12;;;;;;;7.55;1.48;;;;;;;;;;5006803;28;20022;-69
2023/04/12 07:12:37;;;;;;;5.22;1.08;;;;;;;;;;5007179;28;20531;-69
2023/04/12 07:15:03;;;;;;;5.97;2.40;;;;;;;;;;4993167;28;20029;-69
2023/04/12 07:17:29;;;;;;;4.85;1.10;;;;;;;;;;5006126;28;20038;-69
2023/04/12 07:19:54;;;;;;;6.53;1.33;;;;;;;;;;5005209;28;20127;-69
2023/04/12 07:22:20;;;;;;;6.43;1.02;;;;;;;;;;5006656;28;20424;-69
2023/04/12 07:24:45;;;;;;;5.03;0.85;;;;;;;;;;5006486;28;20040;-69
2023/04/12 07:27:11;;;;;;;4.45;0.98;;;;;;;;;;5007245;28;20038;-69
2023/04/12 07:29:36;;;;;;;5.38;0.90;;;;;;;;;;5006127;28;20030;-69
2023/04/12 07:32:02;;;;;;;7.88;1.02;;;;;;;;;;5007188;28;20041;-69
2023/04/12 07:34:27;;;;;;;5.15;1.00;;;;;;;;;;4995714;28;20121;-69
2023/04/12 07:36:52;;;;;;;3.72;1.13;;;;;;;;;;5005140;28;20025;-69
2023/04/12 07:39:18;;;;;;;6.82;1.75;;;;;;;;;;5004831;28;20030;-69
2023/04/12 07:41:45;;;;;;;4.93;1.02;;;;;;;;;;5007815;28;20041;-69
2023/04/12 07:44:11;;;;;;;2.80;0.73;;;;;;;;;;5014706;28;20037;-69
2023/04/12 07:46:37;;;;;;;6.05;1.15;;;;;;;;;;4999774;28;20187;-69
2023/04/12 07:49:03;;;;;;;1.52;1.23;;;;;;;;;;5005044;28;20034;-69
2023/04/12 07:51:28;;;;;;;5.93;1.30;;;;;;;;;;5003937;28;20053;-70
2023/04/12 07:53:54;;;;;;;6.60;1.73;;;;;;;;;;5000086;28;20136;-70
2023/04/12 07:56:19;;;;;;;4.28;1.13;;;;;;;;;;5004874;28;20061;-70
2023/04/12 07:58:44;;;;;;;2.65;0.70;;;;;;;;;;5004643;28;20684;-70
2023/04/12 08:01:12;;;;;;;1.50;0.98;;;;;;;;;;5005070;28;20104;-70
2023/04/12 08:03:37;;;;;;;1.20;0.80;;;;;;;;;;5004098;28;20014;-70
2023/04/12 08:06:03;;;;;;;5.68;1.20;;;;;;;;;;5003386;28;20079;-70
2023/04/12 08:08:28;;;;;;;4.22;1.15;;;;;;;;;;5004335;28;20405;-69
2023/04/12 08:10:53;;;;;;;4.50;0.85;;;;;;;;;;5006055;28;20049;-70
2023/04/12 08:13:19;;;;;;;4.78;1.30;;;;;;;;;;5003129;28;20398;-70
2023/04/12 08:15:46;;;;;;;5.68;1.30;;;;;;;;;;4995690;28;20405;-70
2023/04/12 08:18:11;;;;;;;2.65;1.08;;;;;;;;;;5004512;28;20133;-70
2023/04/12 08:20:39;;;;;;;4.82;1.40;;;;;;;;;;5005493;28;20137;-70
2023/04/12 08:23:05;;;;;;;5.22;1.17;;;;;;;;;;5004978;28;20596;-71
2023/04/12 08:25:30;;;;;;;8.32;1.45;;;;;;;;;;5004264;28;20113;-70
2023/04/12 08:27:55;;;;;;;4.80;1.48;;;;;;;;;;5003145;28;20064;-70
2023/04/12 08:30:25;;;;;;;4.25;1.25;;;;;;;;;;5005322;28;20525;-70
2023/04/12 08:32:51;;;;;;;6.78;1.10;;;;;;;;;;5003327;28;20041;-70
2023/04/12 08:35:17;;;;;;;5.65;1.45;;;;;;;;;;4989242;28;20116;-70
2023/04/12 08:37:42;;;;;;;5.32;1.27;;;;;;;;;;5004720;28;20125;-70
2023/04/12 08:40:08;;;;;;;4.50;1.20;;;;;;;;;;5004963;28;20029;-70
2023/04/12 08:42:38;;;;;;;4.88;1.30;;;;;;;;;;5004756;28;20049;-70
2023/04/12 08:45:05;;;;;;;5.25;1.38;;;;;;;;;;5004995;28;20092;-70
2023/04/12 08:47:33;;;;;;;4.90;1.50;;;;;;;;;;5005254;28;20041;-70
2023/04/12 08:49:59;;;;;;;5.88;1.40;;;;;;;;;;5001713;28;20053;-70
2023/04/12 08:52:25;;;;;;;4.20;1.10;;;;;;;;;;5004834;28;20038;-70
2023/04/12 08:54:50;;;;;;;5.78;1.13;;;;;;;;;;4996975;28;20022;-70
2023/04/12 08:57:17;;;;;;;13.85;1.33;;;;;;;;;;5001304;28;20223;-70
2023/04/12 08:59:45;;;;;;;4.22;1.40;;;;;;;;;;5002901;28;20099;-70
2023/04/12 09:02:13;;;;;;;6.50;1.92;;;;;;;;;;5002646;28;20113;-69
2023/04/12 09:04:52;;;;;;;8.10;1.83;;;;;;;;;;5004146;28;20041;-70
2023/04/12 09:07:18;;;;;;;4.75;1.60;;;;;;;;;;5015858;28;20444;-70
2023/04/12 09:09:45;;;;;;;6.95;1.30;;;;;;;;;;5010651;28;20014;-69
2023/04/12 09:12:11;;;;;;;4.43;1.52;;;;;;;;;;5010715;28;20038;-70
2023/04/12 09:14:38;;;;;;;3.42;1.35;;;;;;;;;;5007044;28;20087;-70
2023/04/12 09:17:04;;;;;;;5.68;1.52;;;;;;;;;;5003351;28;20077;-70
2023/04/12 09:19:34;;;;;;;9.80;1.73;;;;;;;;;;5004866;28;20033;-69
2023/04/12 09:22:00;;;;;;;13.88;1.92;;;;;;;;;;5005288;28;20025;-70
2023/04/12 09:24:26;;;;;;;5.07;1.20;;;;;;;;;;5004020;28;20715;-70
2023/04/12 09:27:05;;;;;;;11.07;1.67;;;;;;;;;;5003123;28;20036;-70
2023/04/12 09:29:31;;;;;;;5.97;1.40;;;;;;;;;;5006599;28;20171;-69
2023/04/12 09:32:01;;;;;;;6.35;1.42;;;;;;;;;;5008727;28;20030;-70
2023/04/12 09:34:26;;;;;;;5.55;1.77;;;;;;;;;;5007791;28;20041;-70
2023/04/12 09:36:52;;;;;;;5.68;1.63;;;;;;;;;;5005154;28;20034;-71
2023/04/12 09:39:18;;;;;;;7.15;1.60;;;;;;;;;;5014023;28;20532;-70
2023/04/12 09:41:43;;;;;;;2.67;1.20;;;;;;;;;;5007159;28;20037;-70
2023/04/12 09:44:09;;;;;;;7.28;2.05;;;;;;;;;;5007879;28;20041;-70
2023/04/12 09:46:35;;;;;;;2.00;1.20;;;;;;;;;;4993471;28;20030;-70
2023/04/12 09:49:02;;;;;;;7.47;1.70;;;;;;;;;;5007262;28;20029;-70
2023/04/12 09:51:30;;;;;;;4.28;1.73;;;;;;;;;;5007372;28;20042;-70
2023/04/12 09:54:03;;;;;;;5.68;1.45;;;;;;;;;;5006022;28;20125;-70
2023/04/12 09:56:34;;;;;;;3.88;1.50;;;;;;;;;;5008206;28;20030;-70
2023/04/12 09:59:02;;;;;;;6.40;1.83;;;;;;;;;;5007667;28;20460;-70
2023/04/12 10:01:29;;;;;;;6.80;2.00;;;;;;;;;;5007953;28;20489;-70
2023/04/12 10:03:56;;;;;;;6.35;1.88;;;;;;;;;;5009900;28;20096;-70
2023/04/12 10:06:21;;;;;;;8.65;2.00;;;;;;;;;;5005989;28;20823;-70
2023/04/12 10:08:48;;;;;;;5.97;1.95;;;;;;;;;;5006251;28;20097;-70
2023/04/12 10:11:14;;;;;;;11.10;1.95;;;;;;;;;;5006384;28;20050;-70
2023/04/12 10:13:42;;;;;;;9.90;1.83;;;;;;;;;;5001574;28;20048;-70
2023/04/12 10:16:08;;;;;;;11.20;2.03;;;;;;;;;;4994624;28;20112;-70
2023/04/12 10:18:38;;;;;;;9.77;2.22;;;;;;;;;;5000884;28;20022;-70
2023/04/12 10:21:04;;;;;;;8.65;1.63;;;;;;;;;;4993251;28;20053;-70
2023/04/12 10:23:33;;;;;;;10.32;2.00;;;;;;;;;;5004089;28;20096;-70
2023/04/12 10:26:01;;;;;;;7.85;1.63;;;;;;;;;;5007038;28;20029;-70
2023/04/12 10:28:26;;;;;;;10.27;2.22;;;;;;;;;;5013051;28;20501;-70
2023/04/12 10:30:56;;;;;;;7.95;1.80;;;;;;;;;;5018973;28;20018;-70
2023/04/12 10:33:26;;;;;;;11.00;1.73;;;;;;;;;;5006458;28;20833;-70
2023/04/12 10:35:59;;;;;;;6.93;1.50;;;;;;;;;;5005150;28;20091;-70
2023/04/12 10:38:29;;;;;;;7.28;1.55;;;;;;;;;;5006436;28;20121;-70
2023/04/12 10:41:14;;;;;;;4.05;1.25;;;;;;;;;;5006369;28;20088;-70
2023/04/12 10:43:41;;;;;;;3.97;1.58;;;;;;;;;;4993996;28;20045;-70
2023/04/12 10:46:06;;;;;;;6.90;2.35;;;;;;;;;;5006717;28;20049;-70
2023/04/12 10:48:39;;;;;;;6.57;1.77;;;;;;;;;;5007523;28;20010;-70
2023/04/12 10:51:11;;;;;;;3.93;1.90;;;;;;;;;;5004892;28;20586;-70
2023/04/12 10:53:36;;;;;;;6.60;1.83;;;;;;;;;;5005283;28;20037;-70
2023/04/12 10:56:30;;;;;;;8.77;2.22;;;;;;;;;;5004582;28;20034;-70
2023/04/12 10:58:58;;;;;;;5.45;1.98;;;;;;;;;;5004680;28;20119;-70
2023/04/12 11:01:25;;;;;;;6.25;1.70;;;;;;;;;;5005428;28;20028;-70
2023/04/12 11:04:12;;;;;;;9.65;2.35;;;;;;;;;;5006695;28;20022;-70
2023/04/12 11:06:52;;;;;;;6.07;1.58;;;;;;;;;;4991414;28;20045;-70
2023/04/12 11:09:26;;;;;;;7.53;1.80;;;;;;;;;;5005832;28;20034;-70
2023/04/12 11:12:12;;;;;;;9.75;1.65;;;;;;;;;;5005674;28;20121;-70
2023/04/12 11:14:46;;;;;;;4.63;1.60;;;;;;;;;;5006899;28;20410;-70
2023/04/12 11:17:11;;;;;;;5.68;1.92;;;;;;;;;;5004807;28;20089;-70
2023/04/12 11:19:39;;;;;;;6.20;1.73;;;;;;;;;;5006004;28;20038;-70
2023/04/12 11:22:06;;;;;;;4.95;1.08;;;;;;;;;;4997767;28;20026;-70
2023/04/12 11:24:31;;;;;;;2.40;1.15;;;;;;;;;;4993869;28;20254;-70
2023/04/12 11:26:58;;;;;;;2.42;0.90;;;;;;;;;;4990469;28;20537;-70
2023/04/12 11:29:25;;;;;;;1.25;0.70;;;;;;;;;;4992327;28;20042;-69
2023/04/12 11:31:50;;;;;;;3.78;1.40;;;;;;;;;;5001955;28;20424;-71
2023/04/12 11:34:17;;;;;;;7.03;1.40;;;;;;;;;;5003702;28;20540;-70
2023/04/12 11:36:47;;;;;;;6.85;1.88;;;;;;;;;;5005460;28;20056;-69
2023/04/12 11:39:13;;;;;;;7.85;2.90;;;;;;;;;;5005890;28;20088;-71
2023/04/12 11:41:47;;;;;;;7.55;2.50;;;;;;;;;;5005970;28;20049;-71
2023/04/12 11:44:17;;;;;;;7.68;2.72;;;;;;;;;;5005659;28;20030;-71
2023/04/12 11:46:43;;;;;;;4.95;2.08;;;;;;;;;;5003966;28;20042;-71
2023/04/12 11:49:09;;;;;;;6.68;1.75;;;;;;;;;;5007966;28;20120;-71
2023/04/12 11:51:35;;;;;;;3.55;1.40;;;;;;;;;;5013768;28;20389;-70
2023/04/12 11:54:00;;;;;;;6.80;1.60;;;;;;;;;;5014297;28;20079;-70
2023/04/12 11:56:28;;;;;;;3.53;1.35;;;;;;;;;;5011852;28;20042;-70
2023/04/12 11:58:53;;;;;;;6.72;1.65;;;;;;;;;;5005883;28;20065;-70
2023/04/12 12:01:20;;;;;;;9.27;1.80;;;;;;;;;;5003369;28;20125;-70
2023/04/12 12:03:47;;;;;;;4.95;1.70;;;;;;;;;;5006218;28;20497;-70
2023/04/12 12:06:13;;;;;;;5.78;1.60;;;;;;;;;;5004914;28;20037;-70
2023/04/12 12:08:39;;;;;;;5.20;1.88;;;;;;;;;;5005150;28;20041;-70
2023/04/12 12:11:04;;;;;;;2.58;1.00;;;;;;;;;;5002379;28;20045;-70
2023/04/12 12:13:47;;;;;;;7.13;1.77;;;;;;;;;;5000873;28;20031;-70
2023/04/12 12:16:13;;;;;;;3.83;1.52;;;;;;;;;;5006905;28;20064;-70
2023/04/12 12:18:39;;;;;;;3.95;1.10;;;;;;;;;;5004782;28;20080;-70
2023/04/12 12:21:08;;;;;;;2.83;1.20;;;;;;;;;;5004930;28;20069;-70
2023/04/12 12:23:34;;;;;;;3.78;1.05;;;;;;;;;;5005348;28;20029;-70
2023/04/12 12:26:02;;;;;;;2.45;0.80;;;;;;;;;;5005103;28;20036;-70
2023/04/12 12:28:28;;;;;;;4.15;1.30;;;;;;;;;;5014004;28;20045;-70
2023/04/12 12:30:56;;;;;;;3.95;1.00;;;;;;;;;;5005385;28;20037;-71
2023/04/12 12:33:22;;;;;;;3.03;1.27;;;;;;;;;;5013095;28;20037;-71
2023/04/12 12:35:55;;;;;;;5.85;1.20;;;;;;;;;;5001328;28;20420;-71
2023/04/12 12:38:20;;;;;;;4.43;1.33;;;;;;;;;;5008041;28;20071;-70
2023/04/12 12:40:45;;;;;;;5.15;1.23;;;;;;;;;;5004749;28;20054;-70
2023/04/12 12:43:17;;;;;;;2.38;1.20;;;;;;;;;;5004251;28;20026;-70
2023/04/12 12:45:42;;;;;;;4.28;1.13;;;;;;;;;;4994841;28;20089;-70
2023/04/12 12:48:08;;;;;;;2.67;1.23;;;;;;;;;;4999140;28;20041;-70
2023/04/12 12:50:35;;;;;;;2.25;1.25;;;;;;;;;;5003931;28;20042;-70
2023/04/12 12:53:01;;;;;;;4.20;1.00;;;;;;;;;;5002090;28;20092;-70
2023/04/12 12:55:28;;;;;;;1.00;0.70;;;;;;;;;;4993873;28;20040;-70
2023/04/12 12:57:55;;;;;;;1.75;0.95;;;;;;;;;;5003772;28;20256;-70
2023/04/12 13:00:22;;;;;;;2.92;0.88;;;;;;;;;;5003886;28;20111;-70
2023/04/12 13:02:48;;;;;;;1.35;0.88;;;;;;;;;;5005093;28;20061;-70
2023/04/12 13:05:13;;;;;;;1.38;0.90;;;;;;;;;;5008572;28;20109;-70
2023/04/12 13:07:38;;;;;;;2.28;1.20;;;;;;;;;;5008130;28;20034;-70
2023/04/12 13:10:04;;;;;;;2.78;1.10;;;;;;;;;;5007186;28;20017;-70
2023/04/12 13:12:30;;;;;;;1.45;0.90;;;;;;;;;;5010825;28;20073;-70
2023/04/12 13:14:56;;;;;;;2.20;1.10;;;;;;;;;;5018198;28;20041;-70
2023/04/12 13:17:22;;;;;;;9.90;1.20;;;;;;;;;;5017785;28;20394;-69
2023/04/12 13:19:48;;;;;;;3.65;1.30;;;;;;;;;;5008383;28;20041;-70
2023/04/12 13:22:16;;;;;;;5.45;1.17;;;;;;;;;;5008788;28;20038;-70
2023/04/12 13:24:42;;;;;;;3.08;1.00;;;;;;;;;;5008598;28;20028;-70
2023/04/12 13:27:08;;;;;;;4.70;1.48;;;;;;;;;;5006605;28;20120;-70
2023/04/12 13:29:34;;;;;;;7.03;1.45;;;;;;;;;;5007071;28;20533;-70
2023/04/12 13:31:59;;;;;;;5.68;1.23;;;;;;;;;;5008148;28;20100;-70
2023/04/12 13:34:25;;;;;;;3.30;1.23;;;;;;;;;;5007022;28;20033;-70
2023/04/12 13:36:50;;;;;;;5.35;1.20;;;;;;;;;;5007800;28;20025;-70
2023/04/12 13:39:16;;;;;;;2.67;1.27;;;;;;;;;;5008727;28;20034;-69
2023/04/12 13:41:42;;;;;;;1.65;0.75;;;;;;;;;;5005680;28;20041;-70
2023/04/12 13:44:07;;;;;;;2.97;1.00;;;;;;;;;;5007123;28;20034;-70
2023/04/12 13:46:32;;;;;;;2.55;0.82;;;;;;;;;;5008308;28;20033;-70
2023/04/12 13:48:58;;;;;;;2.60;0.77;;;;;;;;;;5008349;28;20061;-70
2023/04/12 13:51:24;;;;;;;0.88;0.60;;;;;;;;;;5006740;28;20042;-70
2023/04/12 13:53:50;;;;;;;3.30;0.95;;;;;;;;;;5006248;28;20030;-69
2023/04/12 13:56:15;;;;;;;2.08;1.00;;;;;;;;;;5005574;28;20045;-70
2023/04/12 13:58:41;;;;;;;4.07;1.10;;;;;;;;;;5008153;28;20048;-70
2023/04/12 14:01:07;;;;;;;2.45;0.90;;;;;;;;;;5005189;28;20025;-70
2023/04/12 14:03:33;;;;;;;6.57;1.27;;;;;;;;;;5006641;28;20022;-70
2023/04/12 14:05:59;;;;;;;3.20;1.15;;;;;;;;;;5006927;28;20034;-70
2023/04/12 14:08:26;;;;;;;3.72;1.20;;;;;;;;;;5015083;28;20040;-70
2023/04/12 14:10:51;;;;;;;4.75;1.10;;;;;;;;;;5013970;28;20048;-70
2023/04/12 14:13:17;;;;;;;1.77;1.00;;;;;;;;;;5016216;28;20025;-71
2023/04/12 14:15:42;;;;;;;3.13;1.00;;;;;;;;;;5015731;28;20040;-70
2023/04/12 14:18:07;;;;;;;4.35;1.20;;;;;;;;;;5014471;28;20044;-70
2023/04/12 14:20:33;;;;;;;2.25;1.20;;;;;;;;;;5015712;28;20044;-70
2023/04/12 14:22:58;;;;;;;3.35;1.10;;;;;;;;;;5018367;28;20038;-70
2023/04/12 14:25:23;;;;;;;4.60;1.40;;;;;;;;;;5017274;28;20063;-70
2023/04/12 14:27:49;;;;;;;4.53;1.17;;;;;;;;;;5001133;28;20031;-70
2023/04/12 14:30:14;;;;;;;1.20;0.80;;;;;;;;;;5001881;28;20046;-70
2023/04/12 14:32:40;;;;;;;2.60;1.13;;;;;;;;;;5004076;28;20060;-70
2023/04/12 14:35:05;;;;;;;1.75;0.65;;;;;;;;;;5006359;28;20036;-70
2023/04/12 14:37:31;;;;;;;2.97;0.77;;;;;;;;;;5014379;28;20555;-70
2023/04/12 14:39:57;;;;;;;2.20;0.70;;;;;;;;;;5020204;28;20033;-70
2023/04/12 14:42:22;;;;;;;2.15;1.17;;;;;;;;;;5007549;28;20042;-70